Time;durP1;ratioP1;P1;durP2;ratioP2;P2;SDS_P1;SDS_P2;PMS_P1;PMS_P2;Temp;Humidity;BMP_temperature;BMP_pressure;BME280_temperature;BME280_humidity;BME280_pressure;Samples;Min_cycle;Max_cycle;Signal;HPM_P1;HPM_P2
2020/12/21 00:02:05;;;;;;;110.57;41.42;;;;;;;1.65;100.00;102660.97;5027417;28;20041;-80
2020/12/21 00:04:31;;;;;;;90.07;33.40;;;;;;;1.70;100.00;102669.38;5013358;28;20164;-80
2020/12/21 00:06:57;;;;;;;89.85;33.03;;;;;;;1.73;100.00;102669.19;5013221;28;20028;-80
2020/12/21 00:09:23;;;;;;;86.28;32.40;;;;;;;1.76;100.00;102666.34;5027984;28;20022;-80
2020/12/21 00:11:50;;;;;;;90.65;34.58;;;;;;;1.75;100.00;102669.91;5011328;28;20032;-79
2020/12/21 00:14:15;;;;;;;94.35;34.47;;;;;;;1.74;100.00;102665.59;5012902;28;20374;-80
2020/12/21 00:16:46;;;;;;;96.32;30.90;;;;;;;1.76;100.00;102661.13;5012786;28;20029;-79
2020/12/21 00:19:13;;;;;;;85.07;32.90;;;;;;;1.75;100.00;102675.97;5028119;28;20033;-79
2020/12/21 00:21:40;;;;;;;99.82;34.42;;;;;;;1.71;100.00;102663.19;5011843;28;20029;-80
2020/12/21 00:24:06;;;;;;;91.35;33.15;;;;;;;1.70;100.00;102670.22;5013142;28;20034;-80
2020/12/21 00:26:32;;;;;;;109.03;37.60;;;;;;;1.72;100.00;102673.53;5012174;28;20368;-80
2020/12/21 00:28:58;;;;;;;93.07;33.88;;;;;;;1.72;100.00;102684.03;5028403;28;20034;-80
2020/12/21 00:31:31;;;;;;;96.93;32.42;;;;;;;1.68;100.00;102679.09;5012976;28;20509;-79
2020/12/21 00:33:58;;;;;;;96.00;36.40;;;;;;;1.64;100.00;102682.88;5028195;28;20030;-80
2020/12/21 00:36:25;;;;;;;107.45;42.15;;;;;;;1.67;100.00;102680.88;5012413;28;20041;-80
2020/12/21 00:38:51;;;;;;;97.35;36.35;;;;;;;1.58;100.00;102679.69;5011663;28;20458;-80
2020/12/21 00:41:18;;;;;;;93.32;33.45;;;;;;;1.57;100.00;102679.78;5012147;28;20029;-80
2020/12/21 00:43:45;;;;;;;98.13;35.95;;;;;;;1.52;100.00;102687.13;5013099;28;20022;-78
2020/12/21 00:46:16;;;;;;;99.43;35.88;;;;;;;1.49;100.00;102677.69;5011831;28;20026;-79
2020/12/21 00:48:42;;;;;;;98.97;36.53;;;;;;;1.54;100.00;102682.59;5012510;28;20463;-79
2020/12/21 00:51:09;;;;;;;101.68;34.55;;;;;;;1.49;100.00;102675.06;5031252;28;20029;-79
2020/12/21 00:53:34;;;;;;;108.15;37.60;;;;;;;1.53;100.00;102679.16;5016455;28;20049;-80
2020/12/21 00:56:09;;;;;;;99.47;35.58;;;;;;;1.52;100.00;102671.41;5031548;28;20454;-79
2020/12/21 00:58:36;;;;;;;105.10;36.47;;;;;;;1.40;100.00;102672.19;5016014;28;20116;-79
2020/12/21 01:01:11;;;;;;;93.88;35.47;;;;;;;1.46;100.00;102667.41;5030632;28;20463;-79
2020/12/21 01:03:37;;;;;;;113.72;39.80;;;;;;;1.45;100.00;102665.69;5030794;28;20601;-78
2020/12/21 01:06:06;;;;;;;101.03;38.83;;;;;;;1.34;100.00;102666.41;5016063;28;20025;-80
2020/12/21 01:08:35;;;;;;;100.90;38.03;;;;;;;1.34;100.00;102663.78;5030958;28;20092;-79
2020/12/21 01:11:01;;;;;;;103.82;36.47;;;;;;;1.42;100.00;102665.91;5014671;28;20030;-79
2020/12/21 01:13:26;;;;;;;94.28;35.30;;;;;;;1.43;100.00;102669.38;5015782;28;20021;-80
2020/12/21 01:15:52;;;;;;;104.47;38.83;;;;;;;1.45;100.00;102663.09;5015187;28;20026;-79
2020/12/21 01:18:19;;;;;;;109.13;37.47;;;;;;;1.35;100.00;102668.06;5014033;28;20584;-80
2020/12/21 01:20:44;;;;;;;107.97;36.95;;;;;;;1.39;100.00;102668.72;5015368;28;20109;-79
2020/12/21 01:23:10;;;;;;;105.22;37.95;;;;;;;1.30;100.00;102671.91;5031535;28;20057;-80
2020/12/21 01:25:35;;;;;;;103.28;37.55;;;;;;;1.37;100.00;102657.53;5015969;28;20416;-80
2020/12/21 01:28:02;;;;;;;97.38;36.13;;;;;;;1.30;100.00;102650.97;5030723;28;20030;-80
2020/12/21 01:30:28;;;;;;;106.68;35.63;;;;;;;1.39;100.00;102653.00;5015703;28;20026;-78
2020/12/21 01:32:53;;;;;;;98.63;37.25;;;;;;;1.43;100.00;102654.50;5030034;28;20032;-80
2020/12/21 01:35:19;;;;;;;94.75;36.30;;;;;;;1.33;100.00;102653.41;5031290;28;20096;-81
2020/12/21 01:37:44;;;;;;;93.20;34.42;;;;;;;1.40;100.00;102659.94;5030737;28;20026;-80
2020/12/21 01:40:13;;;;;;;115.60;40.10;;;;;;;1.33;100.00;102650.78;5015489;28;20018;-79
2020/12/21 01:42:39;;;;;;;102.93;37.33;;;;;;;1.38;100.00;102646.09;5030710;28;20153;-80
2020/12/21 01:45:08;;;;;;;97.13;33.92;;;;;;;1.32;100.00;102655.19;5014428;28;20541;-80
2020/12/21 01:47:35;;;;;;;94.47;36.28;;;;;;;1.42;100.00;102644.94;5030435;28;20447;-79
2020/12/21 01:50:03;;;;;;;96.03;35.00;;;;;;;1.43;100.00;102646.66;4995824;28;20037;-80
2020/12/21 01:52:29;;;;;;;100.15;35.03;;;;;;;1.37;100.00;102641.81;5011252;28;20041;-79
2020/12/21 01:54:55;;;;;;;107.80;35.90;;;;;;;1.29;100.00;102647.53;5016687;28;20113;-79
2020/12/21 01:57:20;;;;;;;100.88;37.15;;;;;;;1.31;100.00;102637.81;5014139;28;20040;-80
2020/12/21 01:59:46;;;;;;;106.38;35.72;;;;;;;1.31;100.00;102644.81;5030666;28;20029;-79
2020/12/21 02:02:12;;;;;;;106.55;36.60;;;;;;;1.31;100.00;102650.88;5009507;28;20034;-80
2020/12/21 02:04:38;;;;;;;97.47;35.17;;;;;;;1.34;100.00;102649.84;5025257;28;20022;-79
2020/12/21 02:07:05;;;;;;;107.80;37.50;;;;;;;1.35;100.00;102647.13;5030233;28;20034;-80
2020/12/21 02:09:31;;;;;;;93.85;35.38;;;;;;;1.37;100.00;102655.72;5014862;28;20030;-80
2020/12/21 02:11:56;;;;;;;93.38;36.17;;;;;;;1.39;100.00;102647.75;5029797;28;20470;-80
2020/12/21 02:14:22;;;;;;;103.60;36.30;;;;;;;1.37;100.00;102652.28;5013356;28;20053;-80
2020/12/21 02:16:47;;;;;;;111.95;37.80;;;;;;;1.28;100.00;102647.63;5029821;28;20195;-80
2020/12/21 02:19:13;;;;;;;111.85;40.00;;;;;;;1.34;100.00;102647.25;5013917;28;20029;-79
2020/12/21 02:21:38;;;;;;;250.65;80.65;;;;;;;1.45;100.00;102655.22;5030415;28;20026;-79
2020/12/21 02:24:04;;;;;;;142.23;53.22;;;;;;;1.46;100.00;102649.06;5013854;28;20022;-79
2020/12/21 02:26:30;;;;;;;119.82;44.15;;;;;;;1.47;100.00;102645.50;5029663;28;20557;-79
2020/12/21 02:28:57;;;;;;;114.80;42.17;;;;;;;1.42;100.00;102655.41;5012806;28;20025;-79
2020/12/21 02:31:23;;;;;;;118.53;44.28;;;;;;;1.37;100.00;102645.25;5013284;28;20025;-80
2020/12/21 02:33:48;;;;;;;115.45;43.42;;;;;;;1.45;100.00;102634.28;5029828;28;20034;-80
2020/12/21 02:36:14;;;;;;;114.05;42.63;;;;;;;1.42;100.00;102642.31;5029232;28;20034;-80
2020/12/21 02:38:41;;;;;;;124.15;51.25;;;;;;;1.42;100.00;102633.63;5013401;28;20053;-79
2020/12/21 02:41:07;;;;;;;106.13;40.67;;;;;;;1.36;100.00;102633.13;5013499;28;20374;-79
2020/12/21 02:43:32;;;;;;;110.00;40.70;;;;;;;1.35;100.00;102634.03;5013552;28;20026;-80
2020/12/21 02:45:58;;;;;;;99.90;39.83;;;;;;;1.46;100.00;102641.22;5010017;28;20034;-80
2020/12/21 02:48:24;;;;;;;140.30;60.70;;;;;;;1.45;100.00;102636.91;5011828;28;20033;-80
2020/12/21 02:50:49;;;;;;;123.90;50.47;;;;;;;1.35;100.00;102633.19;5029749;28;20025;-78
2020/12/21 02:53:16;;;;;;;122.85;47.90;;;;;;;1.28;100.00;102632.75;5014069;28;20061;-78
2020/12/21 02:55:42;;;;;;;121.72;46.50;;;;;;;1.35;100.00;102641.06;5029414;28;20049;-80
2020/12/21 02:58:07;;;;;;;126.97;49.30;;;;;;;1.33;100.00;102627.22;5013379;28;20026;-80
2020/12/21 03:00:34;;;;;;;113.65;44.55;;;;;;;1.39;100.00;102634.66;5013408;28;20419;-78
2020/12/21 03:03:03;;;;;;;90.38;36.70;;;;;;;1.30;100.00;102632.66;5029250;28;20041;-79
2020/12/21 03:05:29;;;;;;;104.18;38.10;;;;;;;1.32;100.00;102629.00;5013765;28;20033;-79
2020/12/21 03:07:54;;;;;;;100.88;39.63;;;;;;;1.36;100.00;102627.88;5013660;28;20379;-80
2020/12/21 03:10:20;;;;;;;100.63;37.28;;;;;;;1.39;100.00;102632.06;5028508;28;20026;-80
2020/12/21 03:12:45;;;;;;;92.05;36.50;;;;;;;1.34;100.00;102626.28;5012475;28;20022;-80
2020/12/21 03:15:11;;;;;;;89.55;34.60;;;;;;;1.38;100.00;102625.16;5029261;28;20402;-79
2020/12/21 03:17:36;;;;;;;100.05;37.53;;;;;;;1.33;100.00;102617.59;5013695;28;20025;-79
2020/12/21 03:20:02;;;;;;;102.13;39.92;;;;;;;1.42;100.00;102620.53;5011826;28;20021;-80
2020/12/21 03:22:27;;;;;;;90.05;34.58;;;;;;;1.38;100.00;102622.53;5013486;28;20494;-80
2020/12/21 03:24:52;;;;;;;84.55;34.63;;;;;;;1.44;100.00;102624.75;5029032;28;20116;-81
2020/12/21 03:27:18;;;;;;;99.80;39.05;;;;;;;1.34;100.00;102621.91;5029055;28;20460;-80
2020/12/21 03:29:43;;;;;;;82.80;33.08;;;;;;;1.30;100.00;102625.66;5028403;28;20057;-79
2020/12/21 03:32:09;;;;;;;100.57;36.70;;;;;;;1.25;100.00;102629.50;5009097;28;20022;-79
2020/12/21 03:34:35;;;;;;;97.68;35.20;;;;;;;1.29;100.00;102623.13;5011771;28;20022;-80
2020/12/21 03:37:00;;;;;;;101.90;37.30;;;;;;;1.37;100.00;102621.69;5029243;28;20033;-80
2020/12/21 03:39:26;;;;;;;95.85;37.05;;;;;;;1.43;100.00;102615.22;5028197;28;20026;-78
2020/12/21 03:41:51;;;;;;;87.78;33.70;;;;;;;1.46;100.00;102617.66;5013283;28;20045;-78
2020/12/21 03:44:17;;;;;;;74.05;29.77;;;;;;;1.49;100.00;102614.81;5012565;28;20465;-80
2020/12/21 03:46:42;;;;;;;84.00;30.90;;;;;;;1.46;100.00;102617.66;5013411;28;20036;-80
2020/12/21 03:49:07;;;;;;;72.13;26.58;;;;;;;1.49;100.00;102611.38;5013341;28;20105;-80
2020/12/21 03:51:33;;;;;;;72.38;25.67;;;;;;;1.49;100.00;102620.06;5013452;28;20030;-80
2020/12/21 03:53:58;;;;;;;73.70;27.88;;;;;;;1.47;100.00;102615.84;5008865;28;20038;-80
2020/12/21 03:56:23;;;;;;;69.25;25.88;;;;;;;1.50;100.00;102615.66;5008706;28;20023;-79
2020/12/21 03:58:49;;;;;;;67.70;26.23;;;;;;;1.45;100.00;102615.94;5010162;28;20613;-80
2020/12/21 04:01:14;;;;;;;69.00;27.85;;;;;;;1.39;100.00;102616.34;5028696;28;20033;-78
2020/12/21 04:03:40;;;;;;;70.63;27.63;;;;;;;1.49;100.00;102614.81;5012118;28;20046;-79
2020/12/21 04:06:05;;;;;;;73.65;28.15;;;;;;;1.48;100.00;102609.66;5012568;28;20486;-79
2020/12/21 04:08:30;;;;;;;77.60;31.50;;;;;;;1.45;100.00;102607.25;5012976;28;20111;-80
2020/12/21 04:10:59;;;;;;;71.13;27.33;;;;;;;1.49;100.00;102614.81;5028584;28;20402;-80
2020/12/21 04:13:24;;;;;;;68.05;27.63;;;;;;;1.43;100.00;102614.38;5008546;28;20517;-81
2020/12/21 04:15:51;;;;;;;69.78;27.52;;;;;;;1.44;100.00;102614.28;5018123;28;20033;-79
2020/12/21 04:18:17;;;;;;;71.47;28.05;;;;;;;1.47;100.00;102614.06;5028505;28;20022;-79
2020/12/21 04:20:42;;;;;;;74.80;29.80;;;;;;;1.33;100.00;102620.22;5012034;28;20044;-80
2020/12/21 04:23:08;;;;;;;72.05;29.17;;;;;;;1.42;100.00;102620.53;5013321;28;20036;-78
2020/12/21 04:25:33;;;;;;;68.63;27.90;;;;;;;1.35;100.00;102612.25;5014753;28;20064;-80
2020/12/21 04:27:58;;;;;;;82.65;30.30;;;;;;;1.44;100.00;102610.81;5016470;28;20030;-79
2020/12/21 04:30:24;;;;;;;76.18;29.13;;;;;;;1.47;100.00;102608.84;5032318;28;20072;-78
2020/12/21 04:32:49;;;;;;;68.20;27.63;;;;;;;1.47;100.00;102616.69;5031820;28;20382;-80
2020/12/21 04:35:15;;;;;;;78.72;29.48;;;;;;;1.46;100.00;102615.03;5012411;28;20030;-78
2020/12/21 04:37:41;;;;;;;106.30;47.92;;;;;;;1.44;100.00;102618.69;5014664;28;20457;-79
2020/12/21 04:40:06;;;;;;;88.25;38.40;;;;;;;1.45;100.00;102620.34;5016150;28;20033;-78
2020/12/21 04:42:32;;;;;;;85.97;36.95;;;;;;;1.46;100.00;102611.56;5016082;28;20466;-80
2020/12/21 04:44:58;;;;;;;81.85;34.47;;;;;;;1.53;100.00;102618.91;5013513;28;20045;-79
2020/12/21 04:47:24;;;;;;;84.00;38.70;;;;;;;1.53;100.00;102618.06;5016432;28;20470;-78
2020/12/21 04:49:50;;;;;;;107.20;49.50;;;;;;;1.54;100.00;102614.50;5016109;28;20529;-78
2020/12/21 04:52:16;;;;;;;77.70;36.55;;;;;;;1.44;100.00;102613.44;5031296;28;20482;-80
2020/12/21 04:54:42;;;;;;;67.40;29.05;;;;;;;1.42;100.00;102610.91;5011627;28;20030;-77
2020/12/21 04:57:08;;;;;;;71.35;28.08;;;;;;;1.47;100.00;102621.94;5015026;28;20040;-80
2020/12/21 04:59:34;;;;;;;101.80;48.03;;;;;;;1.44;100.00;102623.91;5014969;28;20033;-80
2020/12/21 05:02:03;;;;;;;80.30;36.75;;;;;;;1.44;100.00;102627.38;5030953;28;20046;-80
2020/12/21 05:04:28;;;;;;;72.55;34.92;;;;;;;1.46;100.00;102622.88;5015654;28;20029;-80
2020/12/21 05:06:56;;;;;;;93.05;45.65;;;;;;;1.53;100.00;102613.66;5031235;28;20048;-79
2020/12/21 05:09:23;;;;;;;135.20;72.13;;;;;;;1.50;100.00;102621.72;5015765;28;20022;-79
2020/12/21 05:12:03;;;;;;;73.68;38.75;;;;;;;1.47;100.00;102616.69;5014556;28;20072;-79
2020/12/21 05:14:37;;;;;;;77.38;40.90;;;;;;;1.49;100.00;102611.38;5015581;28;20448;-80
2020/12/21 05:17:10;;;;;;;76.40;35.95;;;;;;;1.47;100.00;102618.47;5031084;28;20034;-79
2020/12/21 05:19:36;;;;;;;61.20;28.05;;;;;;;1.44;100.00;102623.91;5015283;28;20100;-80
2020/12/21 05:22:01;;;;;;;57.80;24.27;;;;;;;1.46;100.00;102622.03;5015193;28;20406;-78
2020/12/21 05:24:27;;;;;;;54.05;22.20;;;;;;;1.41;100.00;102621.50;5014618;28;20430;-80
2020/12/21 05:26:52;;;;;;;54.85;21.58;;;;;;;1.45;100.00;102622.97;5015147;28;20030;-79
2020/12/21 05:29:27;;;;;;;51.50;20.00;;;;;;;1.43;100.00;102628.31;5015716;28;20033;-80
2020/12/21 05:31:53;;;;;;;43.92;18.13;;;;;;;1.43;100.00;102625.69;5015819;28;20441;-80
2020/12/21 05:34:26;;;;;;;48.80;17.55;;;;;;;1.45;100.00;102622.97;5015551;28;20118;-80
2020/12/21 05:36:52;;;;;;;50.78;20.10;;;;;;;1.43;100.00;102632.72;5030130;28;20347;-80
2020/12/21 05:39:17;;;;;;;53.63;21.77;;;;;;;1.49;100.00;102627.09;5031316;28;20040;-80
2020/12/21 05:41:43;;;;;;;59.42;24.85;;;;;;;1.46;100.00;102628.13;5029881;28;20022;-80
2020/12/21 05:44:08;;;;;;;58.85;23.38;;;;;;;1.45;100.00;102631.66;5014473;28;20033;-79
2020/12/21 05:46:33;;;;;;;51.83;24.33;;;;;;;1.42;100.00;102637.09;5030850;28;20402;-79
2020/12/21 05:48:59;;;;;;;53.20;21.75;;;;;;;1.49;100.00;102634.94;5030865;28;20529;-79
2020/12/21 05:51:34;;;;;;;63.95;24.80;;;;;;;1.49;100.00;102629.69;5014576;28;20459;-80
2020/12/21 05:54:02;;;;;;;60.63;24.80;;;;;;;1.44;100.00;102642.25;5030486;28;20091;-79
2020/12/21 05:56:35;;;;;;;59.35;22.10;;;;;;;1.42;100.00;102639.72;5029744;28;20441;-79
2020/12/21 05:59:01;;;;;;;56.65;22.50;;;;;;;1.43;100.00;102645.81;5030243;28;20034;-78
2020/12/21 06:01:27;;;;;;;62.75;22.33;;;;;;;1.44;100.00;102648.31;5018703;28;20042;-80
2020/12/21 06:03:58;;;;;;;58.88;25.15;;;;;;;1.39;100.00;102645.16;5014272;28;20018;-81
2020/12/21 06:06:28;;;;;;;53.20;24.00;;;;;;;1.45;100.00;102642.13;5013897;28;20026;-77
2020/12/21 06:08:56;;;;;;;52.30;23.25;;;;;;;1.44;100.00;102647.47;5014598;28;20034;-81
2020/12/21 06:11:23;;;;;;;40.88;17.77;;;;;;;1.39;100.00;102645.16;5014709;28;20025;-80
2020/12/21 06:14:09;;;;;;;44.38;19.45;;;;;;;1.45;100.00;102655.22;5014450;28;20034;-78
2020/12/21 06:16:38;;;;;;;47.92;19.40;;;;;;;1.45;100.00;102644.75;5027779;28;20045;-77
2020/12/21 06:19:11;;;;;;;44.25;20.60;;;;;;;1.46;100.00;102656.09;5014172;28;20041;-80
2020/12/21 06:21:48;;;;;;;70.15;30.50;;;;;;;1.46;100.00;102645.63;5029102;28;20044;-79
2020/12/21 06:24:21;;;;;;;56.75;25.33;;;;;;;1.45;100.00;102647.38;5030308;28;20053;-79
2020/12/21 06:26:48;;;;;;;55.88;25.00;;;;;;;1.46;100.00;102646.44;5030413;28;20095;-80
2020/12/21 06:29:16;;;;;;;58.88;24.30;;;;;;;1.53;100.00;102655.56;5017628;28;20137;-78
2020/12/21 06:32:02;;;;;;;58.10;24.77;;;;;;;1.54;100.00;102645.94;5009098;28;20399;-80
2020/12/21 06:34:28;;;;;;;54.25;22.60;;;;;;;1.51;100.00;102652.25;5005905;28;20116;-80
2020/12/21 06:50:52;;;;;;;46.05;21.50;;;;;;;1.63;100.00;102652.34;4614169;27;13803849;-79
2020/12/21 06:53:18;;;;;;;39.38;17.98;;;;;;;1.60;100.00;102654.25;5062377;28;20097;-79
2020/12/21 06:55:43;;;;;;;51.15;23.92;;;;;;;1.60;100.00;102656.00;5070592;28;20032;-78
2020/12/21 06:58:09;;;;;;;43.45;20.52;;;;;;;1.59;100.00;102659.59;5067894;28;20036;-78
2020/12/21 07:00:35;;;;;;;63.38;28.60;;;;;;;1.56;100.00;102659.78;5084670;28;20024;-79
2020/12/21 07:03:02;;;;;;;65.00;32.97;;;;;;;1.60;100.00;102663.88;5083683;28;20028;-78
2020/12/21 07:05:28;;;;;;;53.55;28.08;;;;;;;1.60;100.00;102666.50;5068822;28;20043;-77
2020/12/21 07:08:00;;;;;;;77.68;38.90;;;;;;;1.63;100.00;102663.66;5069233;28;20073;-78
2020/12/21 07:10:25;;;;;;;56.38;28.77;;;;;;;1.63;100.00;102658.44;5084985;28;20032;-79
2020/12/21 07:12:52;;;;;;;61.22;25.08;;;;;;;1.66;100.00;102655.63;5084736;28;20046;-77
2020/12/21 07:15:21;;;;;;;81.90;36.95;;;;;;;1.67;100.00;102665.16;5069791;28;20046;-78
2020/12/21 07:17:53;;;;;;;94.57;47.85;;;;;;;1.71;100.00;102663.19;5083805;28;20039;-79
2020/12/21 07:20:18;;;;;;;73.18;34.10;;;;;;;1.72;100.00;102662.22;5061661;28;20549;-80
2020/12/21 07:22:44;;;;;;;75.72;34.50;;;;;;;1.70;100.00;102659.72;5087068;28;20115;-78
2020/12/21 07:25:11;;;;;;;62.05;31.83;;;;;;;1.71;100.00;102664.03;5071018;28;20492;-78
2020/12/21 07:27:38;;;;;;;89.32;45.60;;;;;;;1.68;100.00;102671.25;5062509;28;20032;-79
2020/12/21 07:30:10;;;;;;;78.82;41.53;;;;;;;1.74;100.00;102663.81;5085375;28;20025;-77
2020/12/21 07:32:36;;;;;;;59.15;28.63;;;;;;;1.72;100.00;102664.84;5076227;28;20021;-77
2020/12/21 07:35:02;;;;;;;48.50;24.92;;;;;;;1.74;100.00;102670.84;5068086;28;20154;-79
2020/12/21 07:37:31;;;;;;;56.75;30.13;;;;;;;1.67;100.00;102674.81;5070289;28;20016;-79
2020/12/21 07:39:59;;;;;;;43.85;20.52;;;;;;;1.68;100.00;102668.63;5070410;28;20020;-78
2020/12/21 07:42:27;;;;;;;51.10;20.27;;;;;;;1.75;100.00;102675.97;5062836;28;20459;-79
2020/12/21 07:44:58;;;;;;;49.53;24.33;;;;;;;1.70;100.00;102672.84;5063621;28;20030;-79
2020/12/21 07:47:29;;;;;;;41.00;18.27;;;;;;;1.76;100.00;102675.03;5085238;28;20083;-77
2020/12/21 07:49:56;;;;;;;47.63;18.73;;;;;;;1.82;100.00;102673.81;5076054;28;20044;-78
2020/12/21 07:52:23;;;;;;;38.05;19.73;;;;;;;1.80;100.00;102668.66;5054523;28;20111;-77
2020/12/21 07:54:49;;;;;;;40.15;20.13;;;;;;;1.80;100.00;102673.06;5071768;28;20401;-80
2020/12/21 07:57:18;;;;;;;37.90;18.30;;;;;;;1.82;100.00;102673.81;5063113;28;20025;-77
2020/12/21 07:59:54;;;;;;;38.65;19.38;;;;;;;1.85;100.00;102673.59;5070915;28;20028;-78
2020/12/21 08:02:23;;;;;;;38.95;19.98;;;;;;;1.80;100.00;102667.81;5053846;28;20033;-79
2020/12/21 08:04:49;;;;;;;36.92;15.75;;;;;;;1.81;100.00;102669.50;5071962;28;20045;-79
2020/12/21 08:07:14;;;;;;;33.15;15.10;;;;;;;1.85;100.00;102660.50;5053602;28;20029;-79
2020/12/21 08:09:40;;;;;;;269.23;119.47;;;;;;;1.91;100.00;102665.34;5054276;28;20017;-77
2020/12/21 08:12:12;;;;;;;54.90;24.48;;;;;;;2.02;100.00;102664.59;5052110;28;20028;-79
2020/12/21 08:14:39;;;;;;;40.70;18.55;;;;;;;2.11;100.00;102671.84;5072011;28;20160;-80
2020/12/21 08:17:18;;;;;;;49.50;32.15;;;;;;;2.10;100.00;102664.13;5052373;28;20042;-78
2020/12/21 08:19:58;;;;;;;37.92;19.98;;;;;;;2.11;100.00;102663.16;5071715;28;20047;-79
2020/12/21 08:22:28;;;;;;;43.67;22.67;;;;;;;2.11;100.00;102664.00;5069375;28;20039;-77
2020/12/21 08:25:01;;;;;;;54.22;30.83;;;;;;;2.18;100.00;102660.03;5053016;28;20176;-78
2020/12/21 08:27:27;;;;;;;41.85;19.50;;;;;;;2.21;100.00;102657.22;5049106;28;20063;-79
2020/12/21 08:30:11;;;;;;;50.35;30.83;;;;;;;2.22;100.00;102656.25;5052255;28;20029;-78
2020/12/21 08:32:40;;;;;;;58.78;34.00;;;;;;;2.23;100.00;102657.91;5048424;28;20028;-78
2020/12/21 08:35:09;;;;;;;74.22;48.15;;;;;;;2.27;100.00;102658.56;5051449;28;20068;-78
2020/12/21 08:37:36;;;;;;;37.53;17.75;;;;;;;2.25;100.00;102657.84;5052050;28;20028;-78
2020/12/21 08:40:17;;;;;;;81.90;50.03;;;;;;;2.32;100.00;102651.22;5058890;28;20111;-79
2020/12/21 08:42:43;;;;;;;64.85;35.42;;;;;;;2.33;100.00;102649.44;5053642;28;20377;-79
2020/12/21 08:45:15;;;;;;;84.68;49.03;;;;;;;2.40;100.00;102642.84;5055893;28;20029;-79
2020/12/21 08:47:41;;;;;;;56.25;29.05;;;;;;;2.33;100.00;102637.19;5048017;28;20060;-78
2020/12/21 08:50:06;;;;;;;82.97;50.83;;;;;;;2.37;100.00;102633.38;5051594;28;20068;-78
2020/12/21 08:52:33;;;;;;;113.53;74.28;;;;;;;2.51;100.00;102632.41;5070152;28;20024;-78
2020/12/21 08:54:58;;;;;;;57.55;32.05;;;;;;;2.50;100.00;102642.09;5051612;28;20539;-79
2020/12/21 08:57:25;;;;;;;129.20;84.97;;;;;;;2.54;100.00;102637.44;5044150;28;20028;-79
2020/12/21 08:59:50;;;;;;;46.08;20.98;;;;;;;2.50;100.00;102638.63;5067344;28;20449;-79
2020/12/21 09:02:16;;;;;;;56.97;31.80;;;;;;;2.36;100.00;102638.72;5068673;28;20070;-80
2020/12/21 09:04:41;;;;;;;82.78;47.60;;;;;;;2.42;100.00;102639.16;5049254;28;20119;-79
2020/12/21 09:07:08;;;;;;;109.47;73.70;;;;;;;2.50;100.00;102636.84;5043318;28;20082;-78
2020/12/21 09:09:33;;;;;;;117.70;76.25;;;;;;;2.48;100.00;102633.50;5046925;28;20020;-79
2020/12/21 09:12:00;;;;;;;88.53;53.55;;;;;;;2.47;100.00;102637.03;5068941;28;20089;-79
2020/12/21 09:14:27;;;;;;;60.38;35.30;;;;;;;2.35;100.00;102629.19;5053724;28;20086;-79
2020/12/21 09:16:56;;;;;;;99.60;61.55;;;;;;;2.35;100.00;102630.03;5065182;28;20021;-78
2020/12/21 09:19:21;;;;;;;106.78;68.50;;;;;;;2.39;100.00;102630.66;5068155;28;20016;-78
2020/12/21 09:21:47;;;;;;;111.28;75.28;;;;;;;2.46;100.00;102626.69;5063981;28;20031;-79
2020/12/21 09:24:13;;;;;;;49.10;26.17;;;;;;;2.38;100.00;102619.31;5069756;28;20090;-77
2020/12/21 09:26:38;;;;;;;90.97;57.88;;;;;;;2.44;100.00;102612.81;5051668;28;20028;-77
2020/12/21 09:29:04;;;;;;;59.58;29.23;;;;;;;2.61;100.00;102619.53;5038285;28;20454;-81
2020/12/21 09:31:31;;;;;;;66.85;36.10;;;;;;;2.52;100.00;102610.50;5048625;28;20029;-79
2020/12/21 09:33:56;;;;;;;110.68;58.10;;;;;;;2.67;100.00;102611.22;5043310;28;20052;-78
2020/12/21 09:36:22;;;;;;;115.78;70.78;;;;;;;3.12;100.00;102609.72;5048120;28;20029;-79
2020/12/21 09:38:49;;;;;;;96.32;59.00;;;;;;;2.66;100.00;102612.16;5046752;28;20029;-78
2020/12/21 09:41:18;;;;;;;78.40;44.97;;;;;;;2.52;100.00;102608.72;5046285;28;20607;-78
2020/12/21 09:43:48;;;;;;;82.80;42.33;;;;;;;2.43;100.00;102612.00;5040611;28;20025;-80
2020/12/21 09:46:24;;;;;;;86.18;42.75;;;;;;;2.49;100.00;102610.72;5047043;28;20039;-79
2020/12/21 09:48:53;;;;;;;50.28;19.83;;;;;;;2.49;100.00;102602.84;5038543;28;20166;-77
2020/12/21 09:51:25;;;;;;;47.58;23.20;;;;;;;2.47;100.00;102602.94;5045379;28;20042;-77
2020/12/21 09:53:50;;;;;;;81.60;43.55;;;;;;;2.52;100.00;102600.03;5066986;28;20036;-79
2020/12/21 09:56:16;;;;;;;95.25;49.95;;;;;;;2.57;100.00;102595.25;5049679;28;20039;-78
2020/12/21 09:58:44;;;;;;;78.53;38.92;;;;;;;2.71;100.00;102596.94;5066985;28;20447;-78
2020/12/21 10:01:10;;;;;;;75.93;44.92;;;;;;;2.59;100.00;102597.78;5047786;28;20039;-78
2020/12/21 10:03:39;;;;;;;74.10;38.95;;;;;;;2.43;100.00;102601.50;5054252;28;20032;-79
2020/12/21 10:06:10;;;;;;;87.20;55.67;;;;;;;2.41;100.00;102594.66;5064354;28;20461;-80
2020/12/21 10:08:37;;;;;;;45.45;24.27;;;;;;;2.34;100.00;102589.03;5050541;28;20032;-79
2020/12/21 10:11:03;;;;;;;76.72;44.40;;;;;;;2.40;100.00;102593.84;5067368;28;20025;-79
2020/12/21 10:13:30;;;;;;;75.03;44.30;;;;;;;2.43;100.00;102592.78;5067129;28;20491;-78
2020/12/21 10:15:55;;;;;;;56.15;30.83;;;;;;;2.47;100.00;102583.75;5065757;28;20142;-78
2020/12/21 10:18:21;;;;;;;68.38;38.17;;;;;;;2.53;100.00;102578.91;5044366;28;20165;-80
2020/12/21 10:20:47;;;;;;;56.90;34.13;;;;;;;2.51;100.00;102579.97;5056690;28;20028;-79
2020/12/21 10:23:14;;;;;;;59.35;33.08;;;;;;;2.51;100.00;102585.19;5044333;28;20028;-79
2020/12/21 10:25:40;;;;;;;62.75;37.08;;;;;;;2.52;100.00;102576.41;5044240;28;20472;-78
2020/12/21 10:28:06;;;;;;;71.82;44.53;;;;;;;2.52;100.00;102577.25;5057374;28;20035;-80
2020/12/21 10:30:31;;;;;;;58.05;31.35;;;;;;;2.53;100.00;102578.91;5061949;28;20519;-76
2020/12/21 10:32:57;;;;;;;42.13;23.25;;;;;;;2.54;100.00;102564.00;5057864;28;20484;-79
2020/12/21 10:35:22;;;;;;;44.08;21.45;;;;;;;2.58;100.00;102577.78;5055338;28;20104;-77
2020/12/21 10:37:48;;;;;;;76.15;42.80;;;;;;;2.67;100.00;102570.06;5070327;28;20353;-78
2020/12/21 10:40:13;;;;;;;89.93;50.03;;;;;;;2.65;100.00;102564.09;5047563;28;20050;-79
2020/12/21 10:42:38;;;;;;;49.83;27.38;;;;;;;2.57;100.00;102568.19;5061480;28;20020;-79
2020/12/21 10:45:04;;;;;;;60.35;35.38;;;;;;;2.61;100.00;102569.69;5062339;28;20509;-79
2020/12/21 10:47:31;;;;;;;55.25;31.92;;;;;;;2.69;100.00;102568.19;5041859;28;20021;-78
2020/12/21 10:49:57;;;;;;;39.63;19.27;;;;;;;2.80;100.00;102566.56;5037889;28;20481;-79
2020/12/21 10:52:24;;;;;;;73.18;39.33;;;;;;;2.79;100.00;102559.66;5040951;28;20029;-79
2020/12/21 10:54:49;;;;;;;75.20;48.70;;;;;;;2.72;100.00;102559.25;5042734;28;20029;-77
2020/12/21 10:57:15;;;;;;;45.63;23.10;;;;;;;2.60;100.00;102566.19;5037451;28;20210;-79
2020/12/21 10:59:40;;;;;;;94.63;59.25;;;;;;;2.71;100.00;102563.66;5043944;28;20385;-78
2020/12/21 11:02:06;;;;;;;71.95;41.55;;;;;;;2.67;100.00;102554.34;5046296;28;20359;-80
2020/12/21 11:04:32;;;;;;;147.32;91.47;;;;;;;2.67;100.00;102546.47;5043580;28;20029;-79
2020/12/21 11:06:57;;;;;;;135.80;84.20;;;;;;;2.70;100.00;102543.63;5034997;28;20026;-79
2020/12/21 11:09:24;;;;;;;86.03;50.30;;;;;;;2.67;100.00;102543.00;5035529;28;20021;-80
2020/12/21 11:11:50;;;;;;;84.13;48.47;;;;;;;2.87;100.00;102547.63;5035973;28;20025;-77
2020/12/21 11:14:18;;;;;;;93.40;55.70;;;;;;;2.80;100.00;102545.59;5037740;28;20351;-78
2020/12/21 11:16:54;;;;;;;58.05;30.40;;;;;;;2.77;100.00;102543.19;5053277;28;20013;-78
2020/12/21 11:19:21;;;;;;;86.57;50.95;;;;;;;2.87;100.00;102536.31;5040023;28;20025;-77
2020/12/21 11:21:47;;;;;;;84.30;47.05;;;;;;;2.87;100.00;102545.00;5038843;28;20110;-77